Ride Results

Shahzada Thursday (20-08-2009)
Ride distance: 80.0 km

Outcomes - Shahzada Thursday (20-08-2009)
Division No. of Entries Retired / DNE Completed Withdrawn Ineligible V/O Percentage Completed
HW 10 - 10 - - - 100.00%
MW 18 - 17 - - 1 94.44%
LW 5 - 4 - - 1 80.00%
JN 5 - 5 - - - 100.00%
Totals 38 - 36 - - 2 94.74%
Results - Shahzada Thursday (20-08-2009)
No. Rider Horse Place Time Leg Speeds Total
Km/Hr
H/R bpm
Heavyweight
216 Steve Brisbane Halimas Ibn Rusima 1 (BC) 5:54:00 14.5, 12.1 13.56 47, 40, 47 (Avg:43)
236 Brodie Freeman Flametree Lady Penelope 2 6:35:00 14.1, 9.8 12.15 44, 49, 44 (Avg:46)
217 John Dawson Paro Prediction 3 6:50:00 13.2, 9.8 11.71 41, 43, 47 (Avg:45)
228 Stuart Lymbery Garonne Park Walker 4 7:03:00 13.2, 9.1 11.35 39, 49, 58 (Avg:53)
230 Phil Coleman Alnotarj Statistic 5 8:12:00 10.9, 8.2 9.76 38, 41, 45 (Avg:43)
240 Andrew Jonkers Girilambone Comet 6 8:13:00 11.0, 8.1 9.74 36, 36, 45 (Avg:40)
251 Keith Nagle Elrebel Afternoon Delight 7 8:14:00 10.7, 8.3 9.72 37, 39, 46 (Avg:42)
221 Julie Wright Regency Park Beau Gest 8 8:15:00 11.2, 7.8 9.70 35, 40, 47 (Avg:43)
262 Tine Pederson Aloha Kodiak 9 8:26:00 10.5, 8.1 9.49 30, 37, 50 (Avg:43)
246 Belinda Hopley Girilambone Sorcerer 10 8:51:00 9.9, 7.8 9.04 37, 41, 46 (Avg:43)
Middleweight
252 Ava Pellizzari Zzariava Valentino 1 (BC) 5:39:00 15.3, 12.4 14.16 35, 48, 49 (Avg:48)
270 Virginia Blain Salam Mezzlah 2 (BC) 5:43:00 15.4, 12.0 13.99 42, 44, 50 (Avg:47)
242 Amanda Jansen Kurrajong Shadad 3 5:57:00 13.9, 12.6 13.45 35, 41, 41 (Avg:41)
266 Dianne Luker Kintamani Silver Harmony 4 6:04:00 13.8, 12.1 13.19 31, 38, 42 (Avg:40)
233 Anne Simmons Nurelee Tamaar 5 6:16:00 13.2, 12.0 12.77 35, 40, 44 (Avg:42)
244 Marita Rifai Tianna 6 7:04:00 13.2, 9.1 11.32 36, 42, 49 (Avg:45)
241 Linda Jonkers Girilambone Orion 7 7:08:00 12.8, 9.2 11.21 44, 44, 56 (Avg:50)
261 Adam Kirk Palio 8 7:14:00 12.2, 9.4 11.06 35, 46, 51 (Avg:48)
226 Jason Kirk Garnee Seduction 9 7:59:00 10.3, 9.5 10.02 36, 50, 54 (Avg:52)
223 Alex Baczocha Colo Vivette 10 8:09:00 10.4, 8.9 9.82 34, 40, 58 (Avg:49)
253 Paul Keyes Valinor Park Nickolai 11 8:10:00 10.7, 8.5 9.80 40, 41, 41 (Avg:41)
222 Bob Howden Pindari Park Rahal 12 8:28:00 11.2, 7.4 9.45 38, 54, 48 (Avg:51)
267 Brad Dillon Ebonglen Holmegaard 13 8:41:00 11.0, 7.2 9.21 31, 44, 48 (Avg:46)
249 Anne Barlow Sa-Har Magnolia 14 8:51:00 9.9, 7.8 9.04 43, 40, 46 (Avg:43)
214 Shelley Jones Nioka Park Vain 15 9:29:00 10.1, 6.6 8.44 34, 45, 54 (Avg:49)
259 Jodie Luck Kintamani Sapphire 16 9:32:00 9.7, 6.7 8.39 28, 40, 48 (Avg:44)
269 Cheryl Strachan Mira Monte Dance On 16 9:32:00 9.7, 6.7 8.39 38, 44, 56 (Avg:50)
250 Jennifer Rogers Warren Park Finesse Lame L1 0:00:00 12.4 - 37, 45 (Avg:45)
Lightweight
264 Cherry Cummins Winter Hill Arrow 1 (BC) 6:02:00 14.2, 11.8 13.26 34, 42, 45 (Avg:43)
220 Natasha Mitchell Garnee Ballistic 2 7:59:00 10.3, 9.5 10.02 34, 40, 52 (Avg:46)
229 Ros Ryan Rainbows Reach Scout 3 8:12:00 10.9, 8.2 9.76 32, 41, 41 (Avg:41)
268 Tara Brown Banfield Mystical 4 8:41:00 11.0, 7.2 9.21 37, 43, 53 (Avg:48)
254 Lisa Keyes Valinor Park Tripoli Lame L1 0:00:00 19.9 - 41, 43 (Avg:43)
Junior
227 Noni Seagrim Rahan Mushtar 1 (BC) 8:15:00 10.8, 8.2 9.70 39, 53, 58 (Avg:55)
263 Tyra Pedersen Ja-Rob Sweet Dreams 2 8:26:00 10.5, 8.1 9.49 35, 44, 52 (Avg:48)
248 Britteny Price Goondaloo Blue 3 8:32:00 9.8, 8.6 9.38 35, 43, 47 (Avg:45)
247 Mia Bodewes Leshal Asrahk 4 8:41:00 11.0, 7.2 9.21 35, 47, 49 (Avg:48)
238 Sophie Babic Shellal Cattle King Flyte 5 9:29:00 10.1, 6.6 8.44 33, 42, 48 (Avg:45)